createdAt,value
2022-10-20T04:00:18.765Z,9.90
2022-10-20T04:02:50.748Z,9.90
2022-10-20T04:05:22.623Z,10.00
2022-10-20T04:07:54.302Z,10.00
2022-10-20T04:10:26.115Z,10.00
2022-10-20T04:12:59.240Z,10.00
2022-10-20T04:15:31.103Z,10.00
2022-10-20T04:18:02.827Z,10.00
2022-10-20T04:20:34.628Z,10.00
2022-10-20T04:23:06.354Z,10.00
2022-10-20T04:25:45.353Z,10.00
2022-10-20T04:28:19.273Z,10.00
2022-10-20T04:30:51.060Z,10.00
2022-10-20T04:33:22.737Z,10.00
2022-10-20T04:36:02.331Z,10.10
2022-10-20T04:38:35.236Z,10.00
2022-10-20T04:41:07.030Z,10.00
2022-10-20T04:43:38.690Z,10.10
2022-10-20T04:46:10.636Z,10.10
2022-10-20T04:48:44.211Z,10.10
2022-10-20T04:51:16.655Z,10.10
2022-10-20T04:53:48.450Z,10.10
2022-10-20T04:56:21.411Z,10.10
2022-10-20T04:58:55.906Z,10.10
2022-10-20T05:01:29.952Z,10.10
2022-10-20T05:04:01.725Z,10.20
2022-10-20T05:06:34.279Z,10.10
2022-10-20T05:09:07.383Z,10.10
2022-10-20T05:11:39.405Z,10.10
2022-10-20T05:14:11.472Z,10.10
2022-10-20T05:16:43.436Z,10.10
2022-10-20T05:19:15.346Z,10.10
2022-10-20T05:21:47.182Z,10.10
2022-10-20T05:24:21.452Z,10.10
2022-10-20T05:26:55.200Z,10.10
2022-10-20T05:29:27.305Z,10.20
2022-10-20T05:32:00.220Z,10.10
2022-10-20T05:34:32.011Z,10.10
2022-10-20T05:37:03.800Z,10.10
2022-10-20T05:39:36.009Z,10.10
2022-10-20T05:42:10.253Z,10.10
2022-10-20T05:44:42.199Z,10.10
2022-10-20T05:47:15.110Z,10.20
2022-10-20T05:49:57.602Z,10.20
2022-10-20T05:52:29.566Z,10.20
2022-10-20T05:55:03.282Z,10.20
2022-10-20T05:57:35.184Z,10.20
2022-10-20T06:00:07.829Z,10.20
2022-10-20T06:02:39.815Z,10.10
2022-10-20T06:05:11.690Z,10.10
2022-10-20T06:07:44.815Z,10.20
2022-10-20T06:10:16.659Z,10.20
2022-10-20T06:12:48.430Z,10.20
2022-10-20T06:15:20.232Z,10.20
2022-10-20T06:17:51.967Z,10.20
2022-10-20T06:20:23.697Z,10.20
2022-10-20T06:22:55.336Z,10.20
2022-10-20T06:25:26.981Z,10.20
2022-10-20T06:27:58.618Z,10.30
2022-10-20T06:30:30.869Z,10.30
2022-10-20T06:33:02.522Z,10.40
2022-10-20T06:35:34.180Z,10.40
2022-10-20T06:38:06.195Z,10.40
2022-10-20T06:40:37.894Z,10.40
2022-10-20T06:43:09.629Z,10.50
2022-10-20T06:45:41.356Z,10.50
2022-10-20T06:48:13.154Z,10.60
2022-10-20T06:50:44.962Z,10.60
2022-10-20T06:53:17.019Z,10.70
2022-10-20T06:56:06.858Z,10.70
2022-10-20T06:58:40.208Z,10.70
2022-10-20T07:01:17.788Z,10.80
2022-10-20T07:03:51.024Z,10.80
2022-10-20T07:06:25.760Z,10.90
2022-10-20T07:08:58.670Z,11.00
2022-10-20T07:11:31.974Z,11.10
2022-10-20T07:14:04.279Z,11.20
2022-10-20T07:16:36.071Z,11.30
2022-10-20T07:19:07.889Z,11.40
2022-10-20T07:21:42.973Z,11.50
2022-10-20T07:24:17.135Z,11.60
2022-10-20T07:26:48.798Z,11.70
2022-10-20T07:29:20.686Z,11.80
2022-10-20T07:31:52.535Z,11.90
2022-10-20T07:34:26.146Z,12.00
2022-10-20T07:36:58.841Z,12.20
2022-10-20T07:39:30.610Z,12.40
2022-10-20T07:42:02.256Z,12.40
2022-10-20T07:44:34.081Z,12.60
2022-10-20T07:47:05.720Z,12.60
2022-10-20T07:49:45.243Z,12.70
2022-10-20T07:52:18.338Z,12.80
2022-10-20T07:54:50.243Z,12.80
2022-10-20T07:57:21.932Z,12.90
2022-10-20T07:59:53.700Z,12.90
2022-10-20T08:02:25.391Z,13.00
2022-10-20T08:04:58.154Z,13.10
2022-10-20T08:07:29.895Z,13.20
2022-10-20T08:10:02.040Z,13.20
2022-10-20T08:12:34.068Z,13.20
2022-10-20T08:15:06.216Z,13.30
2022-10-20T08:17:37.987Z,13.30
2022-10-20T08:20:22.393Z,13.40
2022-10-20T08:22:56.718Z,13.50
2022-10-20T08:25:28.400Z,13.60
2022-10-20T08:28:00.257Z,13.60
2022-10-20T08:30:32.119Z,13.70
2022-10-20T08:33:04.036Z,13.80
2022-10-20T08:35:35.987Z,13.90
2022-10-20T08:38:07.720Z,14.00
2022-10-20T08:40:42.709Z,14.10
2022-10-20T08:43:19.878Z,14.30
2022-10-20T08:45:51.720Z,14.40
2022-10-20T08:48:32.524Z,14.50
2022-10-20T08:51:04.793Z,14.50
2022-10-20T08:53:40.078Z,14.60
2022-10-20T08:56:13.909Z,14.60
2022-10-20T08:58:46.402Z,14.70
2022-10-20T09:01:24.117Z,14.80
2022-10-20T09:03:58.635Z,14.80
2022-10-20T09:06:30.668Z,14.90
2022-10-20T09:09:03.648Z,14.90
2022-10-20T09:11:40.242Z,14.80
2022-10-20T09:14:13.267Z,14.90
2022-10-20T09:16:59.865Z,15.00
2022-10-20T09:19:31.906Z,15.00
2022-10-20T09:22:06.169Z,15.10
2022-10-20T09:24:38.192Z,15.20
2022-10-20T09:27:23.264Z,15.40
2022-10-20T09:29:54.996Z,15.50
2022-10-20T09:32:50.369Z,15.60
2022-10-20T09:35:32.853Z,15.50
2022-10-20T09:38:10.394Z,15.50
2022-10-20T09:40:54.691Z,15.50
2022-10-20T09:43:27.324Z,15.50
2022-10-20T09:46:05.855Z,15.40
2022-10-20T09:48:47.080Z,15.50
2022-10-20T09:51:22.259Z,15.40
2022-10-20T09:54:06.469Z,15.50
2022-10-20T09:56:43.109Z,15.50
2022-10-20T09:59:29.642Z,15.60
2022-10-20T10:02:15.086Z,15.70
2022-10-20T10:04:49.060Z,15.90
2022-10-20T10:07:26.817Z,16.10
2022-10-20T10:10:05.621Z,16.30
2022-10-20T10:12:40.220Z,16.40
2022-10-20T10:15:31.415Z,16.40
2022-10-20T10:18:19.203Z,16.50
2022-10-20T10:21:03.457Z,16.50
2022-10-20T10:23:55.197Z,16.60
2022-10-20T10:26:53.165Z,16.70
2022-10-20T10:29:31.083Z,16.80
2022-10-20T10:32:14.578Z,17.00
2022-10-20T10:35:07.794Z,17.50
2022-10-20T10:37:42.849Z,17.60
2022-10-20T10:40:18.923Z,17.60
2022-10-20T10:42:57.654Z,17.60
2022-10-20T10:45:51.296Z,17.40
2022-10-20T10:48:26.006Z,17.10
2022-10-20T10:51:00.687Z,16.90
2022-10-20T10:53:54.075Z,16.70
2022-10-20T10:56:32.152Z,16.60
2022-10-20T10:59:17.307Z,16.50
2022-10-20T11:02:10.778Z,16.50
2022-10-20T11:04:45.440Z,16.60
2022-10-20T11:07:35.164Z,16.60
2022-10-20T11:10:30.605Z,16.70
2022-10-20T11:13:05.031Z,16.80
2022-10-20T11:15:36.642Z,16.80
2022-10-20T11:18:33.208Z,16.90
2022-10-20T11:21:28.263Z,17.00
2022-10-20T11:24:15.686Z,17.10
2022-10-20T11:26:53.375Z,17.10
2022-10-20T11:29:32.907Z,17.20
2022-10-20T11:32:29.185Z,17.20
2022-10-20T11:35:35.753Z,17.20
2022-10-20T11:38:32.172Z,17.20
2022-10-20T11:41:19.146Z,17.20
2022-10-20T11:43:59.866Z,17.20
2022-10-20T11:46:56.473Z,17.10
2022-10-20T11:49:28.949Z,17.10
2022-10-20T11:52:38.444Z,17.10
2022-10-20T11:55:22.207Z,17.10
2022-10-20T11:58:18.600Z,17.10
2022-10-20T12:01:11.821Z,17.00
2022-10-20T12:04:17.622Z,16.90
2022-10-20T12:06:58.251Z,16.80
2022-10-20T12:09:32.987Z,16.90
2022-10-20T12:12:12.691Z,17.00
2022-10-20T12:14:50.370Z,17.10
2022-10-20T12:17:35.729Z,17.20
2022-10-20T12:20:22.729Z,17.30
2022-10-20T12:22:58.959Z,17.40
2022-10-20T12:25:30.683Z,17.40
2022-10-20T12:28:20.612Z,17.30
2022-10-20T12:30:59.575Z,17.30
2022-10-20T12:33:39.273Z,17.20
2022-10-20T12:36:37.472Z,17.20
2022-10-20T12:39:12.220Z,17.10
2022-10-20T12:42:05.290Z,17.00
2022-10-20T12:44:44.072Z,16.80
2022-10-20T12:47:24.431Z,16.70
2022-10-20T12:50:00.422Z,16.70
2022-10-20T12:52:36.061Z,16.70
2022-10-20T12:55:18.289Z,16.50
2022-10-20T12:58:09.497Z,16.50
2022-10-20T13:00:47.231Z,16.50
2022-10-20T13:03:40.028Z,16.50
2022-10-20T13:06:23.983Z,16.50
2022-10-20T13:09:05.007Z,16.40
2022-10-20T13:11:40.708Z,16.40
2022-10-20T13:14:12.480Z,16.30
2022-10-20T13:16:58.230Z,16.30
2022-10-20T13:19:47.786Z,16.30
2022-10-20T13:22:40.770Z,16.40
2022-10-20T13:25:35.458Z,16.50
2022-10-20T13:28:18.443Z,16.50
2022-10-20T13:30:56.163Z,16.60
2022-10-20T13:33:51.545Z,16.60
2022-10-20T13:36:49.979Z,16.60
2022-10-20T13:39:48.262Z,16.60
2022-10-20T13:42:43.635Z,16.70
2022-10-20T13:45:38.740Z,16.70
2022-10-20T13:48:31.155Z,16.80
2022-10-20T13:51:17.123Z,16.80
2022-10-20T13:53:55.658Z,16.80
2022-10-20T13:56:37.727Z,16.80
2022-10-20T13:59:17.574Z,16.80
2022-10-20T14:01:55.243Z,16.80
2022-10-20T14:04:30.034Z,16.80
2022-10-20T14:07:08.515Z,16.80
2022-10-20T14:09:45.320Z,16.70
2022-10-20T14:12:24.021Z,16.70
2022-10-20T14:15:01.402Z,16.70
2022-10-20T14:17:36.263Z,16.70
2022-10-20T14:20:21.850Z,16.60
2022-10-20T14:22:54.660Z,16.50
2022-10-20T14:25:27.907Z,16.50
2022-10-20T14:28:02.830Z,16.40
2022-10-20T14:30:40.175Z,16.40
2022-10-20T14:33:18.135Z,16.30
2022-10-20T14:35:55.746Z,16.20
2022-10-20T14:38:35.405Z,16.20
2022-10-20T14:41:08.452Z,16.20
2022-10-20T14:43:45.736Z,16.20
2022-10-20T14:46:33.535Z,16.20
2022-10-20T14:49:15.620Z,16.20
2022-10-20T14:52:21.810Z,16.20
2022-10-20T14:54:53.922Z,16.10
2022-10-20T14:57:25.738Z,16.10
2022-10-20T15:00:03.805Z,16.10
2022-10-20T15:02:42.682Z,16.00
2022-10-20T15:05:26.627Z,16.00
2022-10-20T15:08:07.193Z,16.00
2022-10-20T15:10:39.315Z,16.00
2022-10-20T15:13:25.005Z,16.00
2022-10-20T15:16:01.895Z,16.00
2022-10-20T15:18:37.866Z,15.90
2022-10-20T15:21:11.902Z,15.90
2022-10-20T15:23:43.627Z,15.90
2022-10-20T15:26:15.337Z,15.80
2022-10-20T15:28:49.268Z,15.70
2022-10-20T15:31:27.093Z,15.70
2022-10-20T15:33:58.890Z,15.70
2022-10-20T15:36:33.668Z,15.60
2022-10-20T15:39:05.964Z,15.60
2022-10-20T15:41:39.252Z,15.50
2022-10-20T15:44:17.727Z,15.50
2022-10-20T15:46:54.990Z,15.50
2022-10-20T15:49:26.691Z,15.50
2022-10-20T15:51:58.599Z,15.50
2022-10-20T15:54:30.336Z,15.40
2022-10-20T15:57:02.077Z,15.40
2022-10-20T15:59:33.811Z,15.40
2022-10-20T16:02:11.216Z,15.30
2022-10-20T16:04:42.979Z,15.30
2022-10-20T16:07:14.674Z,15.30
2022-10-20T16:09:46.378Z,15.20
2022-10-20T16:12:18.291Z,15.20
2022-10-20T16:14:49.999Z,15.20
2022-10-20T16:17:21.808Z,15.20
2022-10-20T16:19:53.474Z,15.10
2022-10-20T16:22:26.450Z,15.10
2022-10-20T16:25:01.338Z,15.10
2022-10-20T16:27:34.044Z,15.00
2022-10-20T16:30:07.838Z,15.00
2022-10-20T16:32:39.929Z,15.00
2022-10-20T16:35:11.971Z,15.00
2022-10-20T16:37:44.055Z,15.00
2022-10-20T16:40:15.860Z,15.00
2022-10-20T16:42:48.587Z,14.90
2022-10-20T16:45:20.322Z,14.90
2022-10-20T16:47:52.113Z,14.90
2022-10-20T16:50:24.142Z,14.90
2022-10-20T16:52:55.928Z,14.80
2022-10-20T16:55:27.565Z,14.80
2022-10-20T16:57:59.376Z,14.80
2022-10-20T17:00:31.080Z,14.80
2022-10-20T17:03:02.904Z,14.80
2022-10-20T17:05:34.699Z,14.80
2022-10-20T17:08:06.383Z,14.80
2022-10-20T17:10:38.336Z,14.80
2022-10-20T17:13:10.259Z,14.80
2022-10-20T17:15:41.955Z,14.80
2022-10-20T17:18:13.772Z,14.70
2022-10-20T17:20:45.516Z,14.70
2022-10-20T17:23:17.216Z,14.70
2022-10-20T17:25:50.027Z,14.70
2022-10-20T17:28:21.809Z,14.70
2022-10-20T17:30:57.270Z,14.60
2022-10-20T17:33:30.480Z,14.60
2022-10-20T17:36:02.260Z,14.60
2022-10-20T17:38:34.443Z,14.60
2022-10-20T17:41:11.999Z,14.60
2022-10-20T17:43:43.754Z,14.70
2022-10-20T17:46:17.766Z,14.70
2022-10-20T17:48:49.519Z,14.70
2022-10-20T17:51:23.559Z,14.80
2022-10-20T17:53:57.621Z,14.80
2022-10-20T17:56:32.155Z,14.70
2022-10-20T17:59:06.391Z,14.70
2022-10-20T18:01:40.654Z,14.60
2022-10-20T18:04:16.863Z,14.60
2022-10-20T18:06:48.603Z,14.60
2022-10-20T18:09:20.576Z,14.50
2022-10-20T18:11:53.243Z,14.50
2022-10-20T18:14:25.061Z,14.50
2022-10-20T18:16:56.830Z,14.50
2022-10-20T18:19:28.531Z,14.50
2022-10-20T18:22:00.191Z,14.40
2022-10-20T18:24:32.022Z,14.40
2022-10-20T18:27:05.635Z,14.40
2022-10-20T18:29:37.833Z,14.40
2022-10-20T18:32:09.566Z,14.40
2022-10-20T18:34:43.376Z,14.40
2022-10-20T18:37:17.830Z,14.40
2022-10-20T18:39:49.824Z,14.40
2022-10-20T18:42:21.519Z,14.40
2022-10-20T18:44:53.348Z,14.30
2022-10-20T18:47:25.031Z,14.30
2022-10-20T18:49:56.798Z,14.30
2022-10-20T18:52:28.533Z,14.30
2022-10-20T18:55:00.249Z,14.30
2022-10-20T18:57:34.749Z,14.30
2022-10-20T19:00:08.267Z,14.30
2022-10-20T19:02:40.112Z,14.30
2022-10-20T19:05:11.832Z,14.20
2022-10-20T19:07:43.670Z,14.20
2022-10-20T19:10:15.399Z,14.20
2022-10-20T19:12:47.046Z,14.20
2022-10-20T19:15:18.765Z,14.20
2022-10-20T19:17:50.515Z,14.20
2022-10-20T19:20:22.188Z,14.20
2022-10-20T19:22:53.840Z,14.20
2022-10-20T19:25:25.498Z,14.20
2022-10-20T19:27:58.898Z,14.20
2022-10-20T19:30:34.973Z,14.20
2022-10-20T19:33:06.805Z,14.10
2022-10-20T19:35:38.767Z,14.10
2022-10-20T19:38:10.433Z,14.20
2022-10-20T19:40:42.259Z,14.20
2022-10-20T19:43:13.951Z,14.30
2022-10-20T19:45:49.069Z,14.40
2022-10-20T19:48:21.987Z,14.30
2022-10-20T19:50:53.826Z,14.40
2022-10-20T19:53:25.533Z,14.30
2022-10-20T19:55:57.279Z,14.30
2022-10-20T19:58:29.051Z,14.30
2022-10-20T20:01:00.957Z,14.30
2022-10-20T20:03:33.080Z,14.30
2022-10-20T20:06:17.580Z,14.20
2022-10-20T20:08:54.696Z,14.20
2022-10-20T20:11:30.694Z,14.30
2022-10-20T20:14:15.576Z,14.20
2022-10-20T20:16:47.917Z,14.20
2022-10-20T20:19:19.631Z,14.20
2022-10-20T20:21:51.371Z,14.20
2022-10-20T20:24:23.037Z,14.20
2022-10-20T20:26:54.727Z,14.10
2022-10-20T20:29:26.450Z,14.10
2022-10-20T20:31:58.164Z,14.10
2022-10-20T20:34:29.907Z,14.00
2022-10-20T20:37:01.687Z,14.00
2022-10-20T20:39:33.383Z,14.00
2022-10-20T20:42:05.169Z,14.00
2022-10-20T20:44:36.863Z,14.00
2022-10-20T20:47:08.651Z,14.00
2022-10-20T20:49:40.412Z,14.00
2022-10-20T20:52:12.143Z,14.00
2022-10-20T20:54:43.911Z,14.00
2022-10-20T20:57:15.583Z,14.00
2022-10-20T20:59:47.990Z,14.00
2022-10-20T21:02:19.728Z,14.00
2022-10-20T21:04:51.574Z,14.00
2022-10-20T21:07:23.395Z,14.00
2022-10-20T21:09:55.163Z,14.00
2022-10-20T21:12:28.708Z,14.00
2022-10-20T21:15:02.314Z,14.00
2022-10-20T21:17:34.031Z,14.00
2022-10-20T21:20:06.475Z,13.90
2022-10-20T21:22:38.423Z,13.90
2022-10-20T21:25:10.424Z,13.90
2022-10-20T21:27:42.212Z,13.90
2022-10-20T21:30:14.026Z,13.90
2022-10-20T21:32:45.711Z,13.80
2022-10-20T21:35:17.465Z,13.80
2022-10-20T21:37:49.302Z,13.70
2022-10-20T21:40:20.958Z,13.70
2022-10-20T21:42:52.628Z,13.60
2022-10-20T21:45:24.308Z,13.60
2022-10-20T21:47:56.478Z,13.60
2022-10-20T21:50:28.283Z,13.50
2022-10-20T21:52:59.963Z,13.60
2022-10-20T21:55:34.319Z,13.60
2022-10-20T21:58:06.081Z,13.60
2022-10-20T22:00:37.826Z,13.60
2022-10-20T22:03:09.528Z,13.60
2022-10-20T22:05:41.230Z,13.60
2022-10-20T22:08:13.055Z,13.50
2022-10-20T22:10:44.728Z,13.60
2022-10-20T22:13:16.366Z,13.60
2022-10-20T22:15:48.113Z,13.60
2022-10-20T22:18:19.846Z,13.60
2022-10-20T22:20:51.805Z,13.70
2022-10-20T22:23:24.077Z,13.60
2022-10-20T22:25:59.388Z,13.60
2022-10-20T22:28:33.604Z,13.60
2022-10-20T22:31:42.268Z,13.60
2022-10-20T22:34:20.370Z,13.60
2022-10-20T22:36:53.540Z,13.50
2022-10-20T22:39:36.593Z,13.50
2022-10-20T22:42:08.860Z,13.40
2022-10-20T22:44:42.628Z,13.30
2022-10-20T22:47:15.250Z,13.30
2022-10-20T22:49:53.624Z,13.20
2022-10-20T22:52:37.899Z,13.20
2022-10-20T22:55:10.135Z,13.10
2022-10-20T22:57:42.282Z,13.10
2022-10-20T23:00:18.668Z,13.00
2022-10-20T23:02:50.713Z,13.00
2022-10-20T23:05:23.267Z,13.00
2022-10-20T23:07:55.338Z,12.90
2022-10-20T23:10:27.814Z,12.90
2022-10-20T23:13:02.234Z,12.90
2022-10-20T23:15:37.506Z,12.80
2022-10-20T23:18:09.219Z,12.80
2022-10-20T23:20:40.902Z,12.80
2022-10-20T23:23:12.724Z,12.70
2022-10-20T23:25:44.519Z,12.70
2022-10-20T23:28:17.187Z,12.70
2022-10-20T23:30:49.035Z,12.70
2022-10-20T23:33:20.739Z,12.60
2022-10-20T23:35:52.469Z,12.60
2022-10-20T23:38:24.282Z,12.50
2022-10-20T23:40:56.151Z,12.50
2022-10-20T23:43:28.052Z,12.50
2022-10-20T23:46:00.038Z,12.50
2022-10-20T23:48:31.845Z,12.50
2022-10-20T23:51:04.907Z,12.50
2022-10-20T23:53:37.173Z,12.50
2022-10-20T23:56:08.880Z,12.60
2022-10-20T23:58:40.710Z,12.60
